Time;durP1;ratioP1;P1;durP2;ratioP2;P2;SDS_P1;SDS_P2;PMS_P1;PMS_P2;Temp;Humidity;BMP_temperature;BMP_pressure;BME280_temperature;BME280_humidity;BME280_pressure;Samples;Min_cycle;Max_cycle;Signal;HPM_P1;HPM_P2
2023/07/20 00:00:17;;;;;;;2.03;1.83;;;;;;;13.55;100.00;101027.91;4953806;28;20581;-46
2023/07/20 00:02:42;;;;;;;1.42;1.33;;;;;;;13.62;100.00;101029.34;4964176;28;20186;-46
2023/07/20 00:05:08;;;;;;;2.20;2.00;;;;;;;13.46;100.00;101022.97;4991409;28;20216;-47
2023/07/20 00:07:34;;;;;;;2.95;2.10;;;;;;;13.44;100.00;101030.25;4980879;28;20583;-49
2023/07/20 00:09:59;;;;;;;2.00;1.90;;;;;;;13.48;100.00;101016.56;4983281;28;20279;-52
2023/07/20 00:12:25;;;;;;;2.28;2.08;;;;;;;13.45;100.00;101021.25;4990870;28;20299;-47
2023/07/20 00:14:53;;;;;;;2.30;2.08;;;;;;;13.43;100.00;101018.63;4986812;28;20549;-46
2023/07/20 00:17:19;;;;;;;2.15;1.95;;;;;;;13.44;100.00;101012.25;4971804;28;20174;-47
2023/07/20 00:19:45;;;;;;;2.72;2.10;;;;;;;13.46;100.00;101026.53;4975879;28;20256;-48
2023/07/20 00:22:10;;;;;;;2.13;1.92;;;;;;;13.46;100.00;101018.44;4971576;28;20636;-51
2023/07/20 00:24:36;;;;;;;3.72;2.10;;;;;;;13.41;100.00;101014.25;4971876;28;20214;-47
2023/07/20 00:27:02;;;;;;;4.72;2.20;;;;;;;13.49;100.00;101015.63;4980905;28;20202;-47
2023/07/20 00:29:28;;;;;;;2.45;1.98;;;;;;;13.50;100.00;101011.13;4963351;28;20185;-46
2023/07/20 00:31:53;;;;;;;2.15;1.73;;;;;;;13.57;100.00;101010.72;4983462;28;20724;-48
2023/07/20 00:34:19;;;;;;;2.95;1.80;;;;;;;13.54;100.00;101010.03;4976523;28;20213;-52
2023/07/20 00:36:44;;;;;;;3.38;2.20;;;;;;;13.39;100.00;101012.50;4990833;28;20545;-46
2023/07/20 00:39:10;;;;;;;5.90;2.38;;;;;;;13.35;100.00;101018.09;4964348;28;20271;-49
2023/07/20 00:41:35;;;;;;;3.70;2.30;;;;;;;13.35;100.00;101007.31;4983581;28;20267;-52
2023/07/20 00:44:02;;;;;;;2.95;1.90;;;;;;;13.37;100.00;101005.44;4960570;28;20711;-51
2023/07/20 00:46:27;;;;;;;2.80;1.92;;;;;;;13.37;100.00;101005.44;4973359;28;20284;-46
2023/07/20 00:48:53;;;;;;;1.95;1.75;;;;;;;13.36;100.00;101015.34;4971395;28;20189;-46
2023/07/20 00:51:21;;;;;;;1.50;1.35;;;;;;;13.39;100.00;101006.25;4981147;28;20208;-47
2023/07/20 00:53:47;;;;;;;1.65;1.55;;;;;;;13.38;100.00;101008.06;4983558;28;20554;-45
2023/07/20 00:56:15;;;;;;;3.78;1.70;;;;;;;13.32;100.00;101002.09;4970880;28;20671;-46
2023/07/20 00:58:41;;;;;;;1.90;1.80;;;;;;;13.32;100.00;101002.97;4959975;28;20234;-49
2023/07/20 01:01:06;;;;;;;2.05;1.85;;;;;;;13.20;100.00;101007.03;4953394;28;20193;-47
2023/07/20 01:03:32;;;;;;;1.95;1.85;;;;;;;13.20;100.00;101000.81;4969674;28;20261;-45
2023/07/20 01:06:29;;;;;;;2.13;1.90;;;;;;;13.09;100.00;100995.03;4968195;28;20657;-48
2023/07/20 01:09:24;;;;;;;2.38;1.80;;;;;;;13.12;100.00;101001.16;4979309;28;20602;-47
2023/07/20 01:12:11;;;;;;;2.40;2.20;;;;;;;13.01;100.00;101002.59;4961493;28;20213;-48
2023/07/20 01:14:37;;;;;;;2.50;1.75;;;;;;;12.98;100.00;100992.84;4971091;28;20178;-47
2023/07/20 01:17:03;;;;;;;2.25;2.05;;;;;;;12.85;100.00;100995.22;4978704;28;20209;-46
2023/07/20 01:19:28;;;;;;;1.80;1.70;;;;;;;12.90;100.00;101005.75;4981411;28;20191;-47
2023/07/20 01:22:07;;;;;;;2.45;2.25;;;;;;;12.77;100.00;101017.09;4986974;28;20185;-51
2023/07/20 01:24:57;;;;;;;2.72;2.10;;;;;;;12.74;100.00;101019.88;4956450;28;20284;-47
2023/07/20 01:27:46;;;;;;;2.08;1.92;;;;;;;12.70;100.00;101026.38;4983423;28;20185;-51
2023/07/20 01:30:17;;;;;;;2.22;2.10;;;;;;;12.69;100.00;101021.06;4967890;28;20201;-47
2023/07/20 01:32:44;;;;;;;2.40;2.20;;;;;;;12.68;100.00;101027.34;4975302;28;20181;-48
2023/07/20 01:35:14;;;;;;;4.63;3.05;;;;;;;12.60;100.00;101019.66;4968787;28;20205;-46
2023/07/20 01:37:43;;;;;;;3.25;3.00;;;;;;;12.59;100.00;101020.56;4984918;28;20174;-48
2023/07/20 01:40:10;;;;;;;3.47;3.17;;;;;;;12.62;100.00;101033.88;4968308;28;20297;-46
2023/07/20 01:42:36;;;;;;;4.82;3.10;;;;;;;12.62;100.00;101023.13;4966589;28;20201;-49
2023/07/20 01:45:01;;;;;;;3.55;2.90;;;;;;;12.62;100.00;101023.13;4956438;28;20185;-47
2023/07/20 01:47:28;;;;;;;4.50;3.63;;;;;;;12.53;100.00;101026.22;4973206;28;20205;-53
2023/07/20 01:49:53;;;;;;;3.50;3.22;;;;;;;12.48;100.00;101023.72;4957798;28;20600;-47
2023/07/20 01:52:20;;;;;;;4.10;3.70;;;;;;;12.47;100.00;101026.50;4977332;28;20213;-47
2023/07/20 01:54:45;;;;;;;4.40;3.55;;;;;;;12.48;100.00;101026.41;4976509;28;20190;-47
2023/07/20 01:57:11;;;;;;;4.13;3.20;;;;;;;12.53;100.00;101018.16;4970119;28;20229;-50
2023/07/20 01:59:36;;;;;;;4.32;3.40;;;;;;;12.49;100.00;101020.09;4977833;28;20692;-46
2023/07/20 02:02:02;;;;;;;3.70;3.50;;;;;;;12.42;100.00;101015.94;4939442;29;20250;-48
2023/07/20 02:04:27;;;;;;;5.05;3.60;;;;;;;12.45;100.00;101015.78;4970184;28;20233;-49
2023/07/20 02:06:53;;;;;;;4.93;3.88;;;;;;;12.41;100.00;101019.56;4968741;28;20261;-47
2023/07/20 02:09:19;;;;;;;4.40;3.90;;;;;;;12.39;100.00;101025.94;4961358;28;20565;-45
2023/07/20 02:11:45;;;;;;;3.53;3.33;;;;;;;12.35;100.00;101028.78;4945871;28;20679;-47
2023/07/20 02:14:10;;;;;;;4.10;3.70;;;;;;;12.38;100.00;101029.59;4937076;28;20246;-46
2023/07/20 02:16:36;;;;;;;4.63;3.55;;;;;;;12.34;100.00;101023.44;4936960;28;20285;-49
2023/07/20 02:19:01;;;;;;;3.65;3.45;;;;;;;12.35;100.00;101030.56;4952639;28;20174;-46
2023/07/20 02:21:27;;;;;;;3.08;2.80;;;;;;;12.43;100.00;101022.19;4954082;28;20376;-48
2023/07/20 02:23:52;;;;;;;3.47;3.00;;;;;;;12.37;100.00;101023.31;4974180;28;20228;-47
2023/07/20 02:26:18;;;;;;;2.88;2.67;;;;;;;12.30;100.00;101022.69;4976753;28;20205;-47
2023/07/20 02:28:43;;;;;;;3.38;2.80;;;;;;;12.35;100.00;101022.50;4966333;28;20192;-48
2023/07/20 02:31:10;;;;;;;4.18;3.05;;;;;;;12.35;100.00;101017.13;4981402;28;20201;-46
2023/07/20 02:33:35;;;;;;;3.47;3.25;;;;;;;12.29;100.00;101018.28;4973902;28;20273;-45
2023/07/20 02:36:01;;;;;;;2.45;2.30;;;;;;;12.42;100.00;101015.03;4954854;28;20206;-50
2023/07/20 02:38:26;;;;;;;2.90;2.70;;;;;;;12.44;100.00;101019.44;4968082;28;20229;-47
2023/07/20 02:40:52;;;;;;;3.97;3.15;;;;;;;12.41;100.00;101024.94;4955022;28;20265;-50
2023/07/20 02:43:17;;;;;;;2.42;2.28;;;;;;;12.49;100.00;101017.41;4967538;28;20163;-53
2023/07/20 02:45:44;;;;;;;3.38;2.40;;;;;;;12.49;100.00;101019.25;4967693;28;20694;-47
2023/07/20 02:48:10;;;;;;;2.53;2.30;;;;;;;12.45;100.00;101021.16;4969779;28;20214;-50
2023/07/20 02:50:36;;;;;;;2.50;2.30;;;;;;;12.34;100.00;101026.13;4960520;28;20198;-47
2023/07/20 02:53:02;;;;;;;3.20;2.33;;;;;;;12.33;100.00;101019.91;4975346;28;20178;-44
2023/07/20 02:55:28;;;;;;;3.05;1.98;;;;;;;12.36;100.00;101013.50;4969859;28;20202;-45
2023/07/20 02:57:53;;;;;;;2.08;1.70;;;;;;;12.40;100.00;101014.22;4968134;28;20234;-48
2023/07/20 03:00:23;;;;;;;3.00;2.25;;;;;;;12.26;100.00;101018.38;4978761;28;20600;-51
2023/07/20 03:02:48;;;;;;;1.70;1.60;;;;;;;12.27;100.00;101022.84;4973327;28;20189;-46
2023/07/20 03:05:16;;;;;;;1.58;1.48;;;;;;;12.35;100.00;101023.41;4973306;28;20660;-47
2023/07/20 03:07:43;;;;;;;2.38;1.52;;;;;;;12.26;100.00;101018.38;4965087;28;20218;-48
2023/07/20 03:10:09;;;;;;;1.70;1.60;;;;;;;12.36;100.00;101021.56;4972826;28;20272;-46
2023/07/20 03:12:35;;;;;;;1.98;1.60;;;;;;;12.34;100.00;101021.63;4972615;28;20692;-47
2023/07/20 03:15:04;;;;;;;3.83;1.40;;;;;;;12.25;100.00;101027.41;4986866;28;20265;-45
2023/07/20 03:17:30;;;;;;;2.35;1.42;;;;;;;12.20;100.00;101020.47;4938124;28;20265;-48
2023/07/20 03:19:56;;;;;;;1.35;1.27;;;;;;;12.25;100.00;101027.41;4972726;28;20197;-46
2023/07/20 03:22:22;;;;;;;1.95;1.15;;;;;;;12.29;100.00;101017.41;4972777;28;20250;-46
2023/07/20 03:24:47;;;;;;;2.65;1.10;;;;;;;12.28;100.00;101019.19;4967193;28;20739;-48
2023/07/20 03:27:13;;;;;;;1.80;1.30;;;;;;;12.29;100.00;101022.78;4969847;28;20286;-48
2023/07/20 03:29:39;;;;;;;1.40;1.30;;;;;;;12.31;100.00;101012.81;4954106;28;20526;-51
2023/07/20 03:32:05;;;;;;;2.75;1.33;;;;;;;12.28;100.00;101018.31;4983230;28;20252;-51
2023/07/20 03:34:31;;;;;;;2.97;1.30;;;;;;;12.31;100.00;101012.81;4983716;28;20716;-51
2023/07/20 03:36:56;;;;;;;1.10;1.10;;;;;;;12.36;100.00;101016.19;4973944;28;20246;-45
2023/07/20 03:39:22;;;;;;;5.32;1.83;;;;;;;12.39;100.00;101015.19;4979850;28;20178;-47
2023/07/20 03:41:48;;;;;;;1.92;1.40;;;;;;;12.36;100.00;101016.19;4948371;28;20675;-46
2023/07/20 03:44:13;;;;;;;6.07;1.98;;;;;;;12.39;100.00;101016.06;4972182;28;20170;-47
2023/07/20 03:46:39;;;;;;;2.15;1.27;;;;;;;12.46;100.00;101016.66;4965258;28;20215;-47
2023/07/20 03:49:06;;;;;;;1.67;1.25;;;;;;;12.55;100.00;101025.22;4975175;28;20261;-48
2023/07/20 03:51:32;;;;;;;2.83;1.15;;;;;;;12.53;100.00;101019.03;4955728;28;20205;-46
2023/07/20 03:53:57;;;;;;;1.95;1.17;;;;;;;12.60;100.00;101011.59;4952319;28;20183;-48
2023/07/20 03:56:24;;;;;;;3.40;1.35;;;;;;;12.64;100.00;101012.28;4951651;28;20202;-49
2023/07/20 03:58:50;;;;;;;1.73;1.25;;;;;;;12.59;100.00;101009.81;4976098;28;20181;-46
2023/07/20 04:01:16;;;;;;;4.03;1.00;;;;;;;12.70;100.00;101010.25;4988560;28;20228;-51
2023/07/20 04:03:42;;;;;;;3.30;1.05;;;;;;;12.71;100.00;101013.78;4983502;28;20265;-47
2023/07/20 04:06:08;;;;;;;2.17;1.25;;;;;;;12.71;100.00;101020.03;4943962;28;20214;-47
2023/07/20 04:08:34;;;;;;;2.28;0.95;;;;;;;12.82;100.00;101022.25;4972100;28;20244;-47
2023/07/20 04:11:01;;;;;;;1.77;1.30;;;;;;;12.75;100.00;101018.97;4954465;28;20193;-45
2023/07/20 04:13:28;;;;;;;3.88;1.20;;;;;;;12.84;100.00;101019.50;4971988;28;20182;-46
2023/07/20 04:15:53;;;;;;;2.58;1.48;;;;;;;12.79;100.00;101014.34;4954517;28;20304;-46
2023/07/20 04:18:19;;;;;;;2.50;1.20;;;;;;;12.84;100.00;101017.69;4971978;28;20265;-47
2023/07/20 04:20:45;;;;;;;3.47;1.13;;;;;;;12.90;100.00;101016.53;4978990;28;20273;-50
2023/07/20 04:23:10;;;;;;;2.72;1.50;;;;;;;12.84;100.00;101014.13;4954228;28;20527;-51
2023/07/20 04:25:38;;;;;;;1.58;1.05;;;;;;;12.81;100.00;101023.19;4967005;28;20273;-47
2023/07/20 04:28:08;;;;;;;2.58;0.82;;;;;;;12.66;100.00;101019.38;4973606;28;20204;-46
2023/07/20 04:30:36;;;;;;;1.20;0.95;;;;;;;12.63;100.00;101022.19;4956311;28;20282;-47
2023/07/20 04:33:02;;;;;;;4.35;1.08;;;;;;;12.64;100.00;101023.94;4957895;28;20173;-46
2023/07/20 04:35:51;;;;;;;1.70;1.10;;;;;;;12.61;100.00;101026.75;4954711;28;20206;-48
2023/07/20 04:38:21;;;;;;;3.33;1.00;;;;;;;12.66;100.00;101022.06;4965817;28;20225;-49
2023/07/20 04:40:51;;;;;;;2.55;0.93;;;;;;;12.72;100.00;101029.84;4949959;28;20178;-52
2023/07/20 04:43:17;;;;;;;3.45;1.10;;;;;;;12.85;100.00;101035.56;4954019;28;20183;-48
2023/07/20 04:45:43;;;;;;;2.38;1.05;;;;;;;12.84;100.00;101035.63;4954045;28;20206;-46
2023/07/20 04:48:14;;;;;;;1.70;1.05;;;;;;;12.85;100.00;101024.78;4960131;28;20532;-47
2023/07/20 04:50:45;;;;;;;1.92;1.00;;;;;;;12.90;100.00;101029.97;4968680;28;20208;-46
2023/07/20 04:53:12;;;;;;;4.40;1.17;;;;;;;12.90;100.00;101032.66;4964486;28;20174;-47
2023/07/20 04:55:39;;;;;;;3.40;1.25;;;;;;;12.93;100.00;101025.34;4961232;28;20254;-51
2023/07/20 04:58:06;;;;;;;3.33;1.30;;;;;;;13.07;100.00;101024.69;4952206;28;20171;-48
2023/07/20 05:00:33;;;;;;;3.25;1.10;;;;;;;13.17;100.00;101031.41;4951921;28;20173;-46
2023/07/20 05:02:59;;;;;;;3.65;1.20;;;;;;;13.22;100.00;101031.19;4969990;28;20185;-50
2023/07/20 05:05:25;;;;;;;1.55;0.82;;;;;;;13.32;100.00;101029.00;4934936;29;20206;-46
2023/07/20 05:07:50;;;;;;;3.10;0.90;;;;;;;13.51;100.00;101029.00;4953301;28;20193;-50
2023/07/20 05:10:16;;;;;;;2.47;1.05;;;;;;;13.65;100.00;101015.78;4964981;28;20178;-50
2023/07/20 05:12:42;;;;;;;3.22;1.10;;;;;;;13.72;100.00;101029.81;4997640;23;20224;-46
2023/07/20 05:15:08;;;;;;;2.10;0.98;;;;;;;13.85;100.00;101013.94;5007510;28;20578;-47
2023/07/20 05:17:35;;;;;;;1.40;0.95;;;;;;;13.78;100.00;101019.63;4982795;28;20181;-46
2023/07/20 05:20:00;;;;;;;2.63;0.82;;;;;;;13.98;100.00;101017.75;4988824;28;20169;-46
2023/07/20 05:22:27;;;;;;;2.42;0.90;;;;;;;14.00;100.00;101005.97;4983179;28;20185;-47
2023/07/20 05:24:53;;;;;;;3.05;0.90;;;;;;;13.91;100.00;101010.94;4964366;28;20899;-45
2023/07/20 05:27:18;;;;;;;3.45;0.90;;;;;;;14.10;100.00;101016.28;4999772;28;20550;-46
2023/07/20 05:29:47;;;;;;;3.17;1.00;;;;;;;14.25;100.00;101015.50;4999037;28;20173;-48
2023/07/20 05:32:13;;;;;;;2.85;1.00;;;;;;;14.17;100.00;101009.66;5003225;28;20227;-46
2023/07/20 05:34:40;;;;;;;3.17;0.98;;;;;;;14.26;100.00;101002.91;5002158;28;20285;-46
2023/07/20 05:37:05;;;;;;;1.15;0.70;;;;;;;14.37;100.00;101006.81;5003403;28;20619;-47
2023/07/20 05:39:34;;;;;;;5.88;1.17;;;;;;;14.24;100.00;101008.38;4990005;28;20277;-46
2023/07/20 05:41:59;;;;;;;4.90;1.10;;;;;;;14.37;100.00;101003.25;5001738;28;20666;-46
2023/07/20 05:44:25;;;;;;;2.72;0.90;;;;;;;14.53;100.00;101004.19;4994995;28;20204;-45
2023/07/20 05:46:50;;;;;;;7.15;1.50;;;;;;;14.41;100.00;100997.59;4993338;28;20226;-46
2023/07/20 05:49:16;;;;;;;8.43;1.38;;;;;;;14.59;100.00;101005.72;4996727;28;20231;-46
2023/07/20 05:51:41;;;;;;;2.22;0.98;;;;;;;14.80;100.00;101003.69;4993201;28;20220;-46
2023/07/20 05:54:08;;;;;;;2.92;1.10;;;;;;;14.81;100.00;100997.38;4996714;28;20216;-46
2023/07/20 05:56:33;;;;;;;4.53;1.70;;;;;;;14.56;100.00;101004.06;5000643;28;20223;-46
2023/07/20 05:58:59;;;;;;;3.05;1.60;;;;;;;14.62;100.00;100998.31;5001049;28;20176;-46
2023/07/20 06:01:27;;;;;;;4.97;1.75;;;;;;;14.80;100.00;100996.50;4998418;28;20178;-47
2023/07/20 06:03:53;;;;;;;7.28;2.03;;;;;;;14.90;100.00;100996.00;4999196;28;20259;-47
2023/07/20 06:06:18;;;;;;;4.28;1.92;;;;;;;15.04;99.90;100996.13;5003940;28;20200;-47
2023/07/20 06:08:44;;;;;;;4.00;1.60;;;;;;;15.29;99.03;101000.19;4996367;28;20184;-46
2023/07/20 06:11:10;;;;;;;6.13;1.67;;;;;;;15.19;97.91;100992.59;5000122;28;20250;-46
2023/07/20 06:13:35;;;;;;;3.60;1.50;;;;;;;15.14;97.40;100991.13;5001078;28;20678;-46
2023/07/20 06:16:01;;;;;;;3.92;1.70;;;;;;;15.24;96.50;100989.66;5000792;28;20247;-49
2023/07/20 06:18:27;;;;;;;3.60;1.70;;;;;;;15.43;95.75;100987.66;5000686;28;20674;-45
2023/07/20 06:20:52;;;;;;;4.35;1.70;;;;;;;15.49;94.65;100980.19;4997245;28;20171;-45
2023/07/20 06:23:19;;;;;;;9.02;1.95;;;;;;;15.35;94.13;100986.34;5001658;28;20229;-47
2023/07/20 06:25:45;;;;;;;6.43;1.75;;;;;;;15.93;93.41;100972.25;5000043;28;20200;-47
2023/07/20 06:28:10;;;;;;;5.88;1.55;;;;;;;16.34;92.36;100965.38;4999890;28;20565;-47
2023/07/20 06:30:36;;;;;;;5.90;1.70;;;;;;;16.17;90.90;100969.94;5004006;28;20177;-46
2023/07/20 06:33:01;;;;;;;5.95;1.67;;;;;;;16.08;89.92;100967.78;5004084;28;20603;-46
2023/07/20 06:35:27;;;;;;;4.47;1.80;;;;;;;15.86;89.56;100968.16;4999441;28;20271;-47
2023/07/20 06:37:52;;;;;;;4.78;1.90;;;;;;;15.86;89.79;100973.56;4999604;28;20690;-46
2023/07/20 06:40:18;;;;;;;5.85;1.80;;;;;;;15.61;90.41;100985.75;4999553;28;20665;-46
2023/07/20 06:42:44;;;;;;;4.68;1.70;;;;;;;16.22;90.75;100988.59;5001218;28;20221;-46
2023/07/20 06:45:09;;;;;;;6.18;2.40;;;;;;;16.10;89.97;100976.69;5003939;28;20235;-47
2023/07/20 06:47:35;;;;;;;7.82;2.90;;;;;;;16.73;88.92;100982.84;5005058;28;20555;-45
2023/07/20 06:50:01;;;;;;;7.22;2.33;;;;;;;16.74;87.11;100982.72;5004586;28;20188;-45
2023/07/20 06:52:27;;;;;;;5.57;1.67;;;;;;;16.72;85.83;100975.69;5002318;28;20204;-48
2023/07/20 06:54:52;;;;;;;7.68;1.77;;;;;;;16.97;83.41;100964.25;5003897;28;20199;-47
2023/07/20 06:57:18;;;;;;;5.50;2.08;;;;;;;16.88;82.58;100966.56;4997129;28;20636;-48
2023/07/20 06:59:43;;;;;;;6.50;1.90;;;;;;;16.34;82.77;100955.41;4998454;28;20201;-47
2023/07/20 07:02:09;;;;;;;8.80;2.10;;;;;;;17.18;83.25;100970.97;5002007;28;20185;-47
2023/07/20 07:04:34;;;;;;;6.15;2.00;;;;;;;17.40;82.02;100959.63;5000666;28;20208;-46
2023/07/20 07:07:00;;;;;;;5.32;1.55;;;;;;;17.07;79.17;100951.84;5003695;28;20657;-46
2023/07/20 07:09:26;;;;;;;7.63;2.13;;;;;;;16.60;79.82;100947.56;4998358;28;20185;-46
2023/07/20 07:11:53;;;;;;;6.45;2.08;;;;;;;16.64;79.95;100951.81;4996051;28;20220;-46
2023/07/20 07:14:20;;;;;;;6.85;1.98;;;;;;;16.89;78.81;100937.66;5003898;28;20272;-47
2023/07/20 07:16:45;;;;;;;5.47;1.63;;;;;;;16.78;79.43;100941.00;4996257;28;20272;-46
2023/07/20 07:19:11;;;;;;;5.22;2.05;;;;;;;17.20;78.13;100939.25;4995964;28;20189;-47
2023/07/20 07:21:36;;;;;;;4.05;1.50;;;;;;;17.45;76.41;100929.56;5000555;28;20177;-47
2023/07/20 07:24:02;;;;;;;6.18;1.90;;;;;;;17.98;74.25;100925.16;5004977;28;20202;-47
2023/07/20 07:26:27;;;;;;;7.97;1.80;;;;;;;17.83;74.21;100926.19;4998753;28;20209;-48
2023/07/20 07:28:53;;;;;;;7.18;2.08;;;;;;;18.08;75.11;100933.50;5000871;28;20189;-46
2023/07/20 07:31:18;;;;;;;6.45;2.00;;;;;;;18.33;73.92;100930.00;4997429;28;20212;-47
2023/07/20 07:33:44;;;;;;;8.40;1.52;;;;;;;17.99;73.35;100936.84;5003519;28;20247;-46
2023/07/20 07:36:09;;;;;;;5.38;1.65;;;;;;;17.15;73.92;100929.72;5001809;28;20578;-46
2023/07/20 07:38:35;;;;;;;7.25;1.98;;;;;;;17.10;75.37;100938.13;5003299;28;20255;-46
2023/07/20 07:41:00;;;;;;;5.07;1.63;;;;;;;16.93;76.64;100950.03;4984281;28;20259;-47
2023/07/20 07:43:26;;;;;;;6.30;1.88;;;;;;;17.55;76.83;100949.66;5004892;28;20199;-46
2023/07/20 07:45:54;;;;;;;7.93;2.17;;;;;;;17.50;78.20;100952.66;5005171;28;20207;-46
2023/07/20 07:48:21;;;;;;;7.22;1.60;;;;;;;17.71;78.99;100977.50;4996238;28;20186;-46
2023/07/20 07:50:46;;;;;;;5.35;1.67;;;;;;;16.86;80.18;100973.03;5000166;28;20262;-46
2023/07/20 07:53:12;;;;;;;5.28;1.95;;;;;;;16.27;83.15;100998.19;5003246;28;20186;-48
2023/07/20 07:55:38;;;;;;;5.60;1.92;;;;;;;16.22;85.51;101004.81;5002501;28;20291;-47
2023/07/20 07:58:03;;;;;;;7.53;2.13;;;;;;;15.82;87.26;101009.84;5005807;28;20262;-46
2023/07/20 08:00:29;;;;;;;7.88;1.77;;;;;;;15.29;89.37;101019.97;5000386;28;20188;-47
2023/07/20 08:02:54;;;;;;;4.95;1.70;;;;;;;15.52;92.60;101018.66;5006223;28;20279;-47
2023/07/20 08:05:20;;;;;;;2.15;1.60;;;;;;;15.47;95.48;101026.16;4998261;28;20205;-48
2023/07/20 08:07:45;;;;;;;3.90;1.75;;;;;;;15.30;97.70;101012.72;4998520;28;20551;-46
2023/07/20 08:10:11;;;;;;;7.57;2.10;;;;;;;14.90;99.42;101023.00;4996490;28;20652;-47
2023/07/20 08:12:37;;;;;;;7.00;1.95;;;;;;;15.41;100.00;101029.19;4996296;28;20232;-47
2023/07/20 08:15:03;;;;;;;4.88;1.42;;;;;;;16.35;100.00;101016.63;4991040;28;20181;-46
2023/07/20 08:17:29;;;;;;;6.20;1.85;;;;;;;16.08;100.00;101008.31;4998659;28;20223;-47
2023/07/20 08:19:54;;;;;;;4.70;1.80;;;;;;;16.85;100.00;101004.59;4998000;28;20194;-47
2023/07/20 08:22:20;;;;;;;7.40;1.70;;;;;;;17.59;99.15;101007.22;4996482;28;20190;-46
2023/07/20 08:24:46;;;;;;;6.07;1.88;;;;;;;17.85;96.59;100994.72;4999295;28;20264;-47
2023/07/20 08:27:11;;;;;;;6.18;1.73;;;;;;;17.99;93.08;100988.34;5002792;28;20212;-47
2023/07/20 08:29:37;;;;;;;7.97;1.85;;;;;;;18.03;88.96;100982.63;5004814;28;20538;-47
2023/07/20 08:32:04;;;;;;;7.03;1.70;;;;;;;17.46;86.91;100986.34;5000221;28;20938;-47
2023/07/20 08:34:30;;;;;;;7.30;1.90;;;;;;;17.04;87.60;100990.81;5003866;28;20583;-45
2023/07/20 08:36:56;;;;;;;6.35;1.60;;;;;;;16.18;89.30;100987.00;5000385;28;20205;-47
2023/07/20 08:39:22;;;;;;;7.40;2.08;;;;;;;16.02;92.00;101004.13;5002277;28;20750;-46
2023/07/20 08:41:49;;;;;;;9.57;1.80;;;;;;;16.19;94.07;101007.69;4999424;28;20255;-46
2023/07/20 08:44:15;;;;;;;6.43;1.33;;;;;;;16.24;95.58;101006.44;5001749;28;20186;-46
2023/07/20 08:46:41;;;;;;;2.80;1.33;;;;;;;16.27;94.99;101008.13;4999739;28;20377;-46
2023/07/20 08:49:06;;;;;;;4.05;1.00;;;;;;;16.18;94.40;101003.25;4998527;28;20239;-47
2023/07/20 08:51:33;;;;;;;3.08;1.30;;;;;;;16.33;96.04;101005.03;4998087;28;20209;-48
2023/07/20 08:53:59;;;;;;;2.70;1.08;;;;;;;15.78;95.58;101014.53;4989909;28;20658;-47
2023/07/20 08:56:26;;;;;;;4.30;1.40;;;;;;;16.30;95.53;101005.22;5001450;28;20211;-45
2023/07/20 08:58:55;;;;;;;4.63;1.27;;;;;;;16.23;96.26;101002.03;4984744;28;20185;-46
2023/07/20 09:01:22;;;;;;;4.47;1.48;;;;;;;16.69;97.49;101011.91;4999090;28;20200;-45
2023/07/20 09:03:48;;;;;;;3.25;0.98;;;;;;;16.65;96.03;101013.06;4998428;28;20195;-45
2023/07/20 09:06:14;;;;;;;3.22;1.00;;;;;;;16.45;94.92;101004.31;4999356;28;20296;-46
2023/07/20 09:08:40;;;;;;;2.67;0.85;;;;;;;16.38;93.91;101005.66;4998223;28;20199;-46
2023/07/20 09:11:06;;;;;;;1.40;0.95;;;;;;;16.66;91.99;101010.28;4998508;28;20707;-46
2023/07/20 09:13:35;;;;;;;4.47;0.73;;;;;;;17.40;90.61;101000.25;5000417;28;20643;-47
2023/07/20 09:16:00;;;;;;;3.15;1.00;;;;;;;17.83;88.89;100989.38;5000137;28;20216;-45
2023/07/20 09:18:28;;;;;;;4.40;1.10;;;;;;;18.18;86.91;100991.56;4997633;28;20239;-47
2023/07/20 09:20:59;;;;;;;2.22;1.00;;;;;;;18.89;85.52;100989.44;4995083;28;20173;-47
2023/07/20 09:23:41;;;;;;;2.95;0.70;;;;;;;18.23;83.18;100988.56;4995406;28;20172;-48
2023/07/20 09:26:15;;;;;;;5.57;1.00;;;;;;;17.42;83.26;100990.19;4998545;28;20615;-46
2023/07/20 09:28:51;;;;;;;1.88;0.80;;;;;;;17.21;82.45;100989.75;4998609;28;20212;-48
2023/07/20 09:31:18;;;;;;;6.22;1.08;;;;;;;16.63;82.81;100999.63;4997734;28;20691;-47
2023/07/20 09:33:44;;;;;;;3.67;0.95;;;;;;;16.61;84.48;101014.22;4998428;28;20188;-47
2023/07/20 09:36:13;;;;;;;3.70;0.90;;;;;;;16.69;85.84;101007.38;4997417;28;20212;-46
2023/07/20 09:38:43;;;;;;;5.20;1.02;;;;;;;17.55;86.09;101013.81;4995906;28;20182;-46
2023/07/20 09:41:13;;;;;;;3.33;0.82;;;;;;;18.03;85.55;101014.31;4991483;28;20910;-47
2023/07/20 09:43:39;;;;;;;4.20;1.00;;;;;;;18.72;83.75;101004.19;5002270;28;20192;-46
2023/07/20 09:46:05;;;;;;;4.25;0.98;;;;;;;19.03;81.22;100996.63;5005792;28;20300;-47
2023/07/20 09:48:30;;;;;;;2.92;1.27;;;;;;;18.22;80.87;100992.25;5000907;28;20275;-47
2023/07/20 09:50:57;;;;;;;3.10;1.08;;;;;;;17.99;81.68;101008.19;4998195;28;20247;-45
2023/07/20 09:53:25;;;;;;;2.47;0.93;;;;;;;16.83;82.99;101027.31;4999884;28;20216;-46
2023/07/20 09:55:51;;;;;;;19.98;2.63;;;;;;;15.50;86.07;101052.13;4998239;28;20200;-46
2023/07/20 09:58:17;;;;;;;14.43;2.50;;;;;;;15.20;90.15;101078.00;4997984;28;20192;-47
2023/07/20 10:00:46;;;;;;;5.60;1.23;;;;;;;14.95;94.17;101069.47;5000750;28;20594;-47
2023/07/20 10:03:17;;;;;;;1.20;0.50;;;;;;;14.77;97.13;101066.78;4979230;28;20276;-47
2023/07/20 10:05:47;;;;;;;1.73;0.75;;;;;;;15.19;99.47;101078.09;4982641;28;20257;-46
2023/07/20 10:08:16;;;;;;;6.10;0.60;;;;;;;15.18;99.79;101069.13;5003152;28;20686;-47
2023/07/20 10:10:43;;;;;;;1.15;0.73;;;;;;;15.61;100.00;101072.19;4998907;28;20180;-45
2023/07/20 10:13:17;;;;;;;2.42;0.55;;;;;;;15.51;100.00;101067.38;5001268;28;20871;-46
2023/07/20 10:15:58;;;;;;;1.83;0.40;;;;;;;16.40;100.00;101057.81;4998823;28;20204;-47
2023/07/20 10:18:38;;;;;;;0.80;0.30;;;;;;;16.85;100.00;101058.75;4996712;28;20256;-46
2023/07/20 10:21:07;;;;;;;1.55;0.43;;;;;;;17.16;98.46;101056.84;4998568;28;21031;-47
2023/07/20 10:23:33;;;;;;;2.63;0.82;;;;;;;17.93;97.53;101041.16;4999060;28;20202;-46
2023/07/20 10:26:00;;;;;;;2.10;0.40;;;;;;;18.21;95.47;101034.75;4998381;28;20288;-47
2023/07/20 10:28:27;;;;;;;2.33;0.77;;;;;;;17.97;92.92;101025.53;4972419;28;20540;-47
2023/07/20 10:30:53;;;;;;;1.55;0.45;;;;;;;17.55;89.74;101033.63;4996038;28;20357;-47
2023/07/20 10:33:19;;;;;;;1.45;0.40;;;;;;;18.21;89.79;101020.31;4997333;28;20627;-47
2023/07/20 10:35:56;;;;;;;3.60;0.50;;;;;;;18.46;87.96;101022.25;4993875;28;20282;-48
2023/07/20 10:38:43;;;;;;;2.03;0.50;;;;;;;18.04;86.90;101000.66;4996124;28;20253;-46
2023/07/20 10:41:28;;;;;;;1.83;0.50;;;;;;;17.86;86.41;101001.84;4979281;28;20176;-46
2023/07/20 10:44:10;;;;;;;4.28;0.82;;;;;;;17.72;85.43;101008.16;4976792;28;20181;-46
2023/07/20 10:46:38;;;;;;;4.50;1.02;;;;;;;17.50;86.57;101005.97;4997281;28;20215;-46
2023/07/20 10:49:09;;;;;;;3.58;0.70;;;;;;;18.45;86.83;101004.22;5000439;28;20185;-47
2023/07/20 10:51:48;;;;;;;2.90;0.88;;;;;;;18.20;85.27;101002.34;4993214;28;20300;-46
2023/07/20 10:54:17;;;;;;;5.43;0.98;;;;;;;18.82;83.39;100999.84;4995336;28;20233;-47
2023/07/20 10:56:44;;;;;;;6.18;1.58;;;;;;;18.53;81.79;100994.59;4998929;28;20717;-46
2023/07/20 10:59:21;;;;;;;4.22;1.00;;;;;;;18.85;80.74;100987.94;4998354;28;20252;-46
2023/07/20 11:01:50;;;;;;;4.43;0.98;;;;;;;18.84;78.46;100986.19;4999540;28;20193;-45
2023/07/20 11:04:18;;;;;;;7.00;1.30;;;;;;;19.27;74.37;100958.69;5000102;28;20273;-47
2023/07/20 11:06:44;;;;;;;4.05;1.38;;;;;;;18.90;73.71;100959.47;5000128;28;20216;-46
2023/07/20 11:09:14;;;;;;;6.22;1.52;;;;;;;18.18;71.99;100952.75;4997296;28;20184;-46
2023/07/20 11:11:42;;;;;;;4.50;1.10;;;;;;;18.44;70.39;100946.41;4992801;28;20490;-45
2023/07/20 11:14:22;;;;;;;3.83;1.00;;;;;;;18.65;69.37;100940.44;4999157;28;20185;-46
2023/07/20 11:16:51;;;;;;;1.63;0.90;;;;;;;18.98;66.91;100939.03;5002603;28;20196;-46
2023/07/20 11:19:20;;;;;;;1.63;0.80;;;;;;;18.89;66.56;100941.47;5000773;28;20189;-47
2023/07/20 11:21:49;;;;;;;4.93;1.10;;;;;;;18.55;65.53;100926.66;5002064;28;20534;-48